Time;durP1;ratioP1;P1;durP2;ratioP2;P2;SDS_P1;SDS_P2;PMS_P1;PMS_P2;Temp;Humidity;BMP_temperature;BMP_pressure;BME280_temperature;BME280_humidity;BME280_pressure;Samples;Min_cycle;Max_cycle;Signal;HPM_P1;HPM_P2
2021/03/22 00:02:20;;;;;;;1.60;1.50;;;;;;;3.15;75.45;93410.38;5011583;28;20165;-68
2021/03/22 00:04:46;;;;;;;2.07;1.70;;;;;;;3.21;75.14;93411.69;5011771;28;20169;-68
2021/03/22 00:07:11;;;;;;;3.43;2.93;;;;;;;3.17;74.92;93414.22;5011494;28;20173;-68
2021/03/22 00:09:37;;;;;;;2.17;1.90;;;;;;;2.99;75.42;93412.94;5012020;28;20176;-68
2021/03/22 00:12:02;;;;;;;1.80;1.70;;;;;;;3.07;75.14;93393.56;5010641;28;20180;-68
2021/03/22 00:14:28;;;;;;;2.00;1.80;;;;;;;3.23;74.06;93388.38;5010373;28;20205;-68
2021/03/22 00:16:53;;;;;;;2.23;2.03;;;;;;;3.12;75.03;93387.31;5011682;28;20172;-68
2021/03/22 00:19:19;;;;;;;2.23;1.87;;;;;;;3.12;74.49;93393.34;5011479;28;20172;-68
2021/03/22 00:21:44;;;;;;;3.37;2.40;;;;;;;3.17;74.33;93387.06;5011589;28;20169;-68
2021/03/22 00:24:10;;;;;;;3.23;2.00;;;;;;;2.88;75.51;93381.00;5011412;28;20172;-68
2021/03/22 00:26:35;;;;;;;3.70;2.50;;;;;;;3.05;75.42;93385.25;5011837;28;20173;-67
2021/03/22 00:29:02;;;;;;;2.33;2.13;;;;;;;2.97;75.74;93386.13;5010107;28;20185;-67
2021/03/22 00:31:27;;;;;;;1.95;1.85;;;;;;;2.88;75.67;93372.31;5009983;28;20196;-68
2021/03/22 00:33:53;;;;;;;1.90;1.80;;;;;;;3.01;75.46;93375.69;5011308;28;20323;-68
2021/03/22 00:36:18;;;;;;;1.90;1.80;;;;;;;3.05;75.34;93382.59;5011558;28;20170;-68
2021/03/22 00:38:44;;;;;;;2.47;2.10;;;;;;;3.21;74.33;93387.94;5011364;28;20220;-68
2021/03/22 00:41:10;;;;;;;2.20;2.00;;;;;;;3.24;74.38;93381.22;5011242;28;20169;-68
2021/03/22 00:43:36;;;;;;;1.80;1.70;;;;;;;3.31;73.26;93382.19;5010325;28;20173;-68
2021/03/22 00:46:02;;;;;;;4.03;1.83;;;;;;;3.15;73.60;93384.00;5009643;28;20215;-68
2021/03/22 00:48:29;;;;;;;2.10;1.83;;;;;;;3.08;73.66;93383.78;5011524;28;20652;-67
2021/03/22 00:50:54;;;;;;;1.60;1.50;;;;;;;3.07;74.01;93382.25;5010167;28;20169;-68
2021/03/22 00:53:20;;;;;;;1.87;1.77;;;;;;;3.08;74.24;93379.28;5013930;28;20229;-68
2021/03/22 00:55:46;;;;;;;2.10;1.80;;;;;;;2.98;74.82;93377.13;5014947;28;20176;-68
2021/03/22 00:58:12;;;;;;;2.23;1.77;;;;;;;3.03;74.82;93365.56;5015016;28;20181;-68
2021/03/22 01:00:37;;;;;;;1.90;1.80;;;;;;;3.00;74.91;93369.63;5014973;28;20204;-68
2021/03/22 01:03:04;;;;;;;1.63;1.47;;;;;;;3.10;74.57;93356.00;5014870;28;20265;-68
2021/03/22 01:05:29;;;;;;;1.85;1.75;;;;;;;3.11;74.72;93351.50;5014896;28;20252;-68
2021/03/22 01:07:55;;;;;;;3.13;1.50;;;;;;;3.14;74.46;93361.34;5014567;28;20244;-68
2021/03/22 01:10:29;;;;;;;1.63;1.50;;;;;;;3.12;74.35;93360.94;5014830;28;20204;-68
2021/03/22 01:12:54;;;;;;;2.03;1.73;;;;;;;3.14;74.14;93348.97;5014615;28;20196;-68
2021/03/22 01:15:20;;;;;;;1.60;1.50;;;;;;;3.16;73.69;93335.44;5013392;28;20681;-68
2021/03/22 01:17:46;;;;;;;1.60;1.50;;;;;;;2.85;74.86;93336.81;5014428;28;20176;-68
2021/03/22 01:20:13;;;;;;;1.93;1.53;;;;;;;2.90;74.91;93330.56;5014753;28;20176;-68
2021/03/22 01:22:38;;;;;;;1.60;1.50;;;;;;;3.01;74.29;93333.50;5014157;28;20181;-68
2021/03/22 01:25:08;;;;;;;1.50;1.40;;;;;;;3.10;74.16;93321.72;5014682;28;20547;-68
2021/03/22 01:27:34;;;;;;;1.88;1.77;;;;;;;2.96;74.68;93316.03;5013271;28;20182;-68
2021/03/22 01:30:00;;;;;;;1.88;1.50;;;;;;;3.14;74.46;93313.88;5013135;28;20272;-68
2021/03/22 01:32:25;;;;;;;1.57;1.47;;;;;;;3.10;73.69;93324.34;5014503;28;20181;-68
2021/03/22 01:34:51;;;;;;;1.77;1.60;;;;;;;2.91;74.38;93327.56;5014130;28;20204;-67
2021/03/22 01:37:16;;;;;;;2.97;1.80;;;;;;;3.18;73.50;93325.28;5014361;28;20224;-68
2021/03/22 01:39:42;;;;;;;2.07;1.67;;;;;;;3.14;73.56;93325.22;5014003;28;20191;-68
2021/03/22 01:42:19;;;;;;;1.53;1.43;;;;;;;3.18;73.54;93320.03;5013101;28;20196;-67
2021/03/22 01:44:51;;;;;;;1.85;1.60;;;;;;;3.17;73.50;93323.78;5013962;28;20172;-68
2021/03/22 01:47:18;;;;;;;1.45;1.35;;;;;;;3.22;73.53;93312.22;4997276;28;20184;-68
2021/03/22 01:49:56;;;;;;;2.17;1.60;;;;;;;3.11;73.65;93302.13;4996579;28;20539;-68
2021/03/22 01:52:21;;;;;;;1.40;1.40;;;;;;;3.06;73.73;93306.88;4997510;28;20220;-68
2021/03/22 01:54:48;;;;;;;1.30;1.20;;;;;;;3.05;74.14;93292.94;5013765;28;20215;-67
2021/03/22 01:57:29;;;;;;;1.52;1.42;;;;;;;3.08;74.15;93294.88;5013913;28;20256;-68
2021/03/22 02:00:23;;;;;;;1.20;1.10;;;;;;;2.98;74.48;93284.06;5013696;28;20727;-67
2021/03/22 02:02:51;;;;;;;1.30;1.20;;;;;;;2.97;74.38;93277.25;5008296;28;20683;-67
2021/03/22 02:05:19;;;;;;;1.38;1.35;;;;;;;2.98;74.01;93273.53;4996618;28;20207;-67
2021/03/22 02:07:47;;;;;;;1.58;1.48;;;;;;;2.99;73.92;93277.69;5011930;28;20189;-67
2021/03/22 02:10:12;;;;;;;1.70;1.30;;;;;;;2.96;73.69;93287.03;4996440;28;20264;-67
2021/03/22 02:12:38;;;;;;;1.63;1.53;;;;;;;2.99;73.57;93280.34;5013397;28;20616;-67
2021/03/22 02:15:05;;;;;;;1.20;1.20;;;;;;;3.05;73.64;93285.03;5013605;28;20299;-68
2021/03/22 02:17:51;;;;;;;1.50;1.40;;;;;;;3.17;72.76;93289.47;5012297;28;20173;-68
2021/03/22 02:20:58;;;;;;;1.60;1.50;;;;;;;3.07;73.43;93293.34;5012404;28;20176;-67
2021/03/22 02:24:14;;;;;;;1.58;1.48;;;;;;;3.18;72.62;93285.72;4972441;28;20654;-67
2021/03/22 02:26:42;;;;;;;1.52;1.42;;;;;;;3.28;72.45;93287.88;4895668;29;20189;-68
2021/03/22 02:29:38;;;;;;;2.63;1.48;;;;;;;3.14;72.77;93293.56;4896108;29;20311;-68
2021/03/22 02:32:30;;;;;;;1.40;1.30;;;;;;;3.26;73.01;93278.78;4895833;29;20201;-67
2021/03/22 02:34:58;;;;;;;1.95;1.50;;;;;;;3.26;72.59;93271.66;4895609;29;20220;-67
2021/03/22 02:37:32;;;;;;;1.40;1.30;;;;;;;3.28;72.77;93263.38;4865092;29;20315;-68
2021/03/22 02:40:03;;;;;;;2.00;1.80;;;;;;;3.27;72.99;93259.22;4879921;29;20670;-67
2021/03/22 02:42:29;;;;;;;1.88;1.70;;;;;;;3.08;73.32;93265.13;4895738;29;20261;-68
2021/03/22 02:44:55;;;;;;;1.90;1.80;;;;;;;3.05;73.39;93266.56;4864482;29;20211;-67
2021/03/22 02:47:28;;;;;;;1.60;1.50;;;;;;;3.08;73.61;93265.88;4895667;29;20193;-68
2021/03/22 02:49:55;;;;;;;1.70;1.60;;;;;;;3.00;73.65;93247.59;4895405;29;20187;-68
2021/03/22 02:52:38;;;;;;;3.45;1.60;;;;;;;2.95;73.94;93248.59;4864399;29;20233;-68
2021/03/22 02:55:41;;;;;;;1.60;1.50;;;;;;;2.98;73.78;93245.28;4895093;29;20630;-68
2021/03/22 02:58:08;;;;;;;1.55;1.45;;;;;;;2.91;74.13;93237.19;4955124;28;21239;-68
2021/03/22 03:00:44;;;;;;;1.30;1.20;;;;;;;2.90;73.86;93239.03;4983420;28;20639;-68
2021/03/22 03:03:12;;;;;;;1.17;1.17;;;;;;;2.78;74.12;93218.00;5011358;28;20173;-68
2021/03/22 03:05:37;;;;;;;1.30;1.20;;;;;;;2.89;74.03;93242.03;5011338;28;20615;-67
2021/03/22 03:08:09;;;;;;;1.47;1.37;;;;;;;2.94;74.23;93241.78;5012605;28;20205;-68
2021/03/22 03:10:34;;;;;;;1.40;1.30;;;;;;;2.82;74.37;93226.78;4995536;28;20247;-68
2021/03/22 03:13:00;;;;;;;1.70;1.60;;;;;;;2.78;74.93;93228.56;5012339;28;20263;-68
2021/03/22 03:15:25;;;;;;;1.77;1.67;;;;;;;2.82;74.50;93224.16;5011651;28;20585;-67
2021/03/22 03:17:51;;;;;;;1.73;1.60;;;;;;;2.89;74.13;93220.94;5012587;28;20180;-68
2021/03/22 03:20:20;;;;;;;2.00;1.50;;;;;;;2.71;74.29;93209.16;5012404;28;20180;-67
2021/03/22 03:22:46;;;;;;;1.88;1.73;;;;;;;2.78;74.40;93215.38;5011099;28;20266;-68
2021/03/22 03:25:12;;;;;;;2.00;1.90;;;;;;;2.79;73.91;93208.22;5012279;28;20644;-68
2021/03/22 03:27:37;;;;;;;1.73;1.63;;;;;;;2.92;73.75;93218.41;5012618;28;20181;-68
2021/03/22 03:30:08;;;;;;;2.00;1.80;;;;;;;2.99;73.75;93206.50;5017184;28;20181;-68
2021/03/22 03:32:34;;;;;;;1.90;1.75;;;;;;;2.78;75.44;93212.75;5020680;28;20682;-68
2021/03/22 03:34:59;;;;;;;3.87;1.60;;;;;;;2.96;74.42;93213.22;5020844;28;20199;-68
2021/03/22 03:37:25;;;;;;;1.43;1.33;;;;;;;3.06;73.99;93220.63;5022813;28;20318;-68
2021/03/22 03:39:50;;;;;;;1.50;1.40;;;;;;;3.08;73.44;93230.84;5020557;28;20185;-69
2021/03/22 03:42:16;;;;;;;1.60;1.47;;;;;;;3.03;74.09;93216.03;5020510;28;20197;-68
2021/03/22 03:44:41;;;;;;;1.40;1.27;;;;;;;2.96;73.88;93207.94;5015252;28;20181;-69
2021/03/22 03:47:07;;;;;;;1.27;1.23;;;;;;;3.14;73.36;93213.66;5011923;28;20212;-69
2021/03/22 03:49:32;;;;;;;1.53;1.43;;;;;;;3.15;73.71;93218.63;5012131;28;20311;-69
2021/03/22 03:51:58;;;;;;;1.63;1.53;;;;;;;3.18;72.95;93214.53;5011480;28;20718;-69
2021/03/22 03:54:23;;;;;;;1.90;1.20;;;;;;;3.18;72.81;93210.00;5011899;28;20575;-68
2021/03/22 03:56:49;;;;;;;1.27;1.17;;;;;;;3.08;73.51;93201.81;5011727;28;20180;-69
2021/03/22 03:59:15;;;;;;;1.50;1.20;;;;;;;2.95;74.28;93205.63;5011896;28;20629;-69
2021/03/22 04:01:40;;;;;;;1.10;1.10;;;;;;;2.68;74.57;93197.41;5011700;28;20176;-69
2021/03/22 04:04:05;;;;;;;1.40;1.30;;;;;;;2.84;75.45;93200.84;5011844;28;20601;-69
2021/03/22 04:06:32;;;;;;;1.50;1.40;;;;;;;3.01;73.65;93204.28;5011498;28;20169;-69
2021/03/22 04:09:14;;;;;;;1.55;1.45;;;;;;;3.19;73.08;93203.63;5010706;28;20228;-69
2021/03/22 04:11:41;;;;;;;2.58;1.17;;;;;;;3.22;73.52;93199.56;5011577;28;20177;-69
2021/03/22 04:14:26;;;;;;;3.45;1.75;;;;;;;2.88;74.45;93195.69;5011659;28;20288;-69
2021/03/22 04:16:52;;;;;;;1.50;1.40;;;;;;;2.93;75.04;93192.81;5011480;28;20227;-72
2021/03/22 04:19:18;;;;;;;1.60;1.50;;;;;;;3.15;73.05;93191.47;5011694;28;20181;-71
2021/03/22 04:21:44;;;;;;;1.60;1.35;;;;;;;3.16;72.40;93191.13;5011361;28;20181;-73
2021/03/22 04:24:10;;;;;;;1.63;1.52;;;;;;;3.04;73.29;93198.34;5010474;28;20241;-73
2021/03/22 04:26:35;;;;;;;1.53;1.40;;;;;;;3.18;74.04;93201.34;5013325;28;20181;-72
2021/03/22 04:29:01;;;;;;;1.70;1.60;;;;;;;3.23;73.06;93195.03;5015718;28;20196;-70
2021/03/22 04:31:27;;;;;;;2.97;1.90;;;;;;;3.06;73.41;93186.34;5015551;28;20169;-70
2021/03/22 04:33:53;;;;;;;2.55;2.10;;;;;;;3.19;72.86;93193.06;5014991;28;20232;-71
2021/03/22 04:36:20;;;;;;;2.10;2.00;;;;;;;3.18;72.57;93182.88;5014308;28;20219;-72
2021/03/22 04:38:45;;;;;;;1.70;1.60;;;;;;;3.20;73.02;93191.22;5015265;28;20181;-71
2021/03/22 04:41:11;;;;;;;2.33;1.80;;;;;;;3.19;72.84;93194.94;5014136;28;20177;-72
2021/03/22 04:43:36;;;;;;;1.87;1.30;;;;;;;3.22;72.83;93193.53;5015152;28;20173;-71
2021/03/22 04:46:02;;;;;;;1.87;1.77;;;;;;;3.25;72.51;93196.22;5015296;28;20168;-72
2021/03/22 04:48:27;;;;;;;1.83;1.63;;;;;;;3.25;72.37;93198.88;5015038;28;20653;-68
2021/03/22 04:50:53;;;;;;;2.27;1.73;;;;;;;3.32;72.80;93187.75;5015173;28;20632;-68
2021/03/22 04:53:19;;;;;;;1.93;1.83;;;;;;;3.06;73.98;93198.78;5014786;28;20221;-68
2021/03/22 04:55:44;;;;;;;1.97;1.80;;;;;;;2.97;74.62;93192.88;5015148;28;20215;-68
2021/03/22 04:58:09;;;;;;;1.47;1.37;;;;;;;3.00;74.08;93198.25;5015056;28;20173;-68
2021/03/22 05:00:40;;;;;;;2.00;1.90;;;;;;;3.14;74.04;93196.00;5015221;28;20173;-67
2021/03/22 05:03:10;;;;;;;1.98;1.80;;;;;;;3.21;73.11;93192.00;5014893;28;20177;-68
2021/03/22 05:05:36;;;;;;;2.08;1.92;;;;;;;3.10;74.08;93192.50;5014917;28;20212;-68
2021/03/22 05:08:02;;;;;;;3.27;2.37;;;;;;;3.09;73.98;93208.66;5014990;28;20180;-68
2021/03/22 05:10:30;;;;;;;2.30;2.10;;;;;;;3.30;73.46;93195.97;5013454;28;20544;-67
2021/03/22 05:12:55;;;;;;;2.20;2.00;;;;;;;3.34;72.92;93201.34;5013618;28;20204;-70
2021/03/22 05:15:22;;;;;;;4.43;2.30;;;;;;;3.03;74.55;93205.50;5014397;28;20236;-68
2021/03/22 05:17:47;;;;;;;3.08;2.42;;;;;;;2.95;74.61;93203.00;5013333;28;20213;-68
2021/03/22 05:20:25;;;;;;;5.43;2.50;;;;;;;3.11;74.90;93206.44;5013285;28;20282;-68
2021/03/22 05:22:50;;;;;;;2.58;2.28;;;;;;;2.89;75.61;93205.13;5014598;28;20180;-67
2021/03/22 05:25:16;;;;;;;2.97;2.10;;;;;;;2.94;75.44;93207.50;5012631;28;20563;-67
2021/03/22 05:27:42;;;;;;;3.05;2.03;;;;;;;2.82;75.52;93218.88;5014465;28;20196;-70
2021/03/22 05:30:08;;;;;;;3.50;2.37;;;;;;;2.90;75.86;93223.22;5013092;28;20294;-67
2021/03/22 05:32:35;;;;;;;3.35;2.53;;;;;;;2.68;76.35;93218.50;5014317;28;20219;-68
2021/03/22 05:35:00;;;;;;;3.10;2.10;;;;;;;2.75;76.53;93221.34;5014211;28;20217;-68
2021/03/22 05:37:26;;;;;;;5.00;2.83;;;;;;;2.98;75.79;93220.81;5013393;28;20543;-67
2021/03/22 05:39:52;;;;;;;3.10;2.60;;;;;;;3.03;75.61;93226.59;5014333;28;20185;-67
2021/03/22 05:42:26;;;;;;;3.00;2.50;;;;;;;3.08;75.21;93212.38;5013781;28;20185;-67
2021/03/22 05:44:58;;;;;;;3.30;2.75;;;;;;;2.97;75.67;93212.09;4997150;28;20615;-67
2021/03/22 05:47:24;;;;;;;9.50;2.85;;;;;;;2.98;75.83;93226.84;5013656;28;20247;-67
2021/03/22 05:50:25;;;;;;;2.90;2.60;;;;;;;3.04;75.58;93241.31;5012769;28;20200;-69
2021/03/22 05:52:58;;;;;;;3.90;2.95;;;;;;;2.89;75.58;93231.47;4956404;28;20304;-68
2021/03/22 05:55:39;;;;;;;5.25;3.80;;;;;;;2.91;75.94;93221.34;4956554;28;20309;-69
2021/03/22 05:58:35;;;;;;;3.42;3.03;;;;;;;3.12;75.08;93223.78;4957059;28;20337;-69
2021/03/22 06:01:04;;;;;;;3.30;2.85;;;;;;;3.12;75.43;93237.75;4956468;28;20555;-67
2021/03/22 06:03:40;;;;;;;4.78;3.75;;;;;;;3.21;75.03;93245.50;4956452;28;20692;-68
2021/03/22 06:06:18;;;;;;;5.05;3.63;;;;;;;3.11;74.95;93238.09;4957567;28;20201;-70
2021/03/22 06:08:52;;;;;;;4.20;3.65;;;;;;;3.24;74.66;93241.41;4957559;28;20190;-69
2021/03/22 06:11:32;;;;;;;3.92;3.53;;;;;;;3.14;75.43;93240.81;4959251;28;20174;-67
2021/03/22 06:14:35;;;;;;;8.38;5.25;;;;;;;3.35;74.81;93237.94;4972353;28;20205;-67
2021/03/22 06:17:20;;;;;;;10.45;7.80;;;;;;;3.34;74.56;93238.28;4972344;28;20600;-69
2021/03/22 06:19:53;;;;;;;6.65;4.80;;;;;;;3.28;74.14;93245.69;4956699;28;20213;-69
2021/03/22 06:22:23;;;;;;;5.72;4.10;;;;;;;3.43;73.86;93244.19;4971910;28;20674;-67
2021/03/22 06:24:49;;;;;;;6.00;4.45;;;;;;;3.29;74.63;93236.66;4972436;28;20512;-68
2021/03/22 06:27:15;;;;;;;5.90;3.83;;;;;;;3.34;73.86;93244.31;4956954;28;20182;-69
2021/03/22 06:29:43;;;;;;;7.57;4.30;;;;;;;3.46;73.63;93243.47;5011791;28;20266;-68
2021/03/22 06:32:21;;;;;;;8.85;5.07;;;;;;;3.49;73.57;93247.34;5011648;28;20427;-68
2021/03/22 06:34:54;;;;;;;6.72;4.60;;;;;;;3.36;73.97;93246.63;5012986;28;20200;-68
2021/03/22 06:37:25;;;;;;;7.25;5.18;;;;;;;3.54;73.36;93253.13;4995864;28;20668;-68
2021/03/22 06:40:21;;;;;;;7.32;5.85;;;;;;;3.60;72.85;93253.63;4995193;28;20195;-69
2021/03/22 06:43:10;;;;;;;8.30;5.18;;;;;;;3.61;73.08;93249.88;5003865;28;20200;-68
2021/03/22 06:46:04;;;;;;;5.50;4.50;;;;;;;3.69;73.11;93254.22;5012713;28;20187;-69
2021/03/22 06:48:32;;;;;;;4.13;3.63;;;;;;;3.69;72.87;93256.84;5013171;28;20581;-70
2021/03/22 06:51:03;;;;;;;5.40;3.22;;;;;;;3.66;72.72;93258.31;5012659;28;20717;-69
2021/03/22 06:53:37;;;;;;;2.92;2.63;;;;;;;3.71;72.60;93252.03;5012784;28;20221;-69
2021/03/22 06:56:21;;;;;;;5.13;2.95;;;;;;;3.77;71.79;93250.66;5012627;28;20242;-70
2021/03/22 06:58:47;;;;;;;5.28;2.85;;;;;;;3.75;72.24;93249.44;5012478;28;20173;-69
2021/03/22 07:01:32;;;;;;;3.13;2.60;;;;;;;3.74;72.50;93256.59;5011697;28;20184;-70
2021/03/22 07:04:17;;;;;;;3.70;2.80;;;;;;;3.71;72.17;93250.16;5012401;28;20181;-70
2021/03/22 07:06:42;;;;;;;5.28;3.10;;;;;;;3.57;73.25;93254.31;5012722;28;20208;-70
2021/03/22 07:09:08;;;;;;;3.93;2.93;;;;;;;3.71;72.94;93257.31;5012377;28;20267;-69
2021/03/22 07:11:34;;;;;;;3.63;3.00;;;;;;;3.60;73.80;93254.41;4994898;28;20189;-69
2021/03/22 07:14:01;;;;;;;6.10;3.60;;;;;;;3.34;74.00;93254.13;4994880;28;20204;-70
2021/03/22 07:16:28;;;;;;;4.25;3.28;;;;;;;3.06;74.71;93251.50;5012331;28;20213;-68
2021/03/22 07:19:07;;;;;;;5.35;4.35;;;;;;;3.39;73.37;93251.22;5011366;28;20217;-69
2021/03/22 07:21:34;;;;;;;5.53;3.38;;;;;;;3.15;73.97;93246.88;5010765;28;20189;-68
2021/03/22 07:24:03;;;;;;;6.78;4.35;;;;;;;3.32;74.16;93241.28;5012011;28;20200;-69
2021/03/22 07:26:37;;;;;;;4.20;3.38;;;;;;;3.19;73.58;93250.34;4994951;28;20177;-68
2021/03/22 07:29:24;;;;;;;3.17;2.63;;;;;;;3.25;72.62;93253.50;4995017;28;20187;-69
2021/03/22 07:32:15;;;;;;;3.33;2.97;;;;;;;3.32;72.37;93269.53;5010756;28;20668;-68
2021/03/22 07:35:17;;;;;;;2.95;2.45;;;;;;;3.28;72.73;93272.06;5011042;28;20189;-69
2021/03/22 07:38:12;;;;;;;3.42;1.80;;;;;;;3.31;72.41;93275.88;5011958;28;20184;-70
2021/03/22 07:40:40;;;;;;;2.97;2.50;;;;;;;3.34;72.31;93278.63;4956942;28;20578;-69
2021/03/22 07:43:08;;;;;;;5.00;2.60;;;;;;;3.30;72.63;93280.41;4970893;28;20185;-70
2021/03/22 07:46:18;;;;;;;2.30;2.10;;;;;;;3.46;72.09;93290.97;4970939;28;20673;-69
2021/03/22 07:48:58;;;;;;;2.33;2.15;;;;;;;3.58;70.46;93290.13;4970880;28;20178;-69
2021/03/22 07:51:51;;;;;;;3.05;2.30;;;;;;;3.37;72.27;93301.72;4955293;28;20198;-70
2021/03/22 07:54:38;;;;;;;2.75;2.33;;;;;;;3.54;71.92;93298.00;4955485;28;20244;-69
2021/03/22 07:57:26;;;;;;;2.83;2.22;;;;;;;3.51;72.23;93289.97;4954676;28;20309;-69
2021/03/22 08:00:28;;;;;;;3.92;2.22;;;;;;;3.34;72.90;93291.81;4970782;28;20286;-69
2021/03/22 08:03:15;;;;;;;3.65;2.30;;;;;;;3.34;73.23;93289.19;4954388;28;20174;-69
2021/03/22 08:05:56;;;;;;;3.90;2.83;;;;;;;3.56;72.09;93292.38;4956968;28;20226;-69
2021/03/22 08:08:29;;;;;;;3.58;2.80;;;;;;;3.43;72.53;93291.66;4970685;28;20182;-70
2021/03/22 08:11:30;;;;;;;4.38;3.08;;;;;;;3.54;72.66;93290.06;4954125;28;20214;-68
2021/03/22 08:14:16;;;;;;;3.35;2.70;;;;;;;3.63;71.70;93288.03;4894355;29;20224;-70
2021/03/22 08:16:58;;;;;;;4.75;3.65;;;;;;;3.66;71.31;93278.66;4895100;29;20189;-71
2021/03/22 08:19:38;;;;;;;5.10;3.40;;;;;;;3.29;72.39;93276.22;4913717;29;20187;-71
2021/03/22 08:22:13;;;;;;;3.83;3.08;;;;;;;3.34;73.15;93283.91;4916439;29;20278;-71
2021/03/22 08:24:50;;;;;;;5.75;4.05;;;;;;;3.45;72.80;93274.38;4931882;29;20597;-72
2021/03/22 08:27:22;;;;;;;6.18;4.13;;;;;;;3.33;73.50;93269.19;4932125;29;20187;-72
2021/03/22 08:30:10;;;;;;;22.20;9.45;;;;;;;3.50;73.03;93272.59;4900895;29;20198;-71
2021/03/22 08:32:51;;;;;;;5.93;4.35;;;;;;;3.52;72.99;93273.03;4931843;29;20679;-71
2021/03/22 08:35:17;;;;;;;4.05;3.45;;;;;;;3.69;72.00;93276.09;4916383;29;20624;-72
2021/03/22 08:37:55;;;;;;;2.60;2.03;;;;;;;3.69;71.57;93281.38;4931746;29;20187;-71
2021/03/22 08:40:50;;;;;;;2.65;2.10;;;;;;;3.64;71.63;93278.22;4901533;29;20180;-71
2021/03/22 08:43:53;;;;;;;2.38;2.15;;;;;;;3.61;72.63;93278.91;4918984;29;20196;-71
2021/03/22 08:46:33;;;;;;;3.13;2.40;;;;;;;3.78;71.32;93272.53;4931688;29;20187;-71
2021/03/22 08:49:00;;;;;;;4.78;2.80;;;;;;;3.79;72.08;93274.06;4948495;28;20660;-72
2021/03/22 08:51:30;;;;;;;3.65;2.97;;;;;;;3.43;72.17;93281.88;4990523;28;20564;-71
2021/03/22 08:53:58;;;;;;;4.57;3.13;;;;;;;3.62;71.87;93283.84;4974530;28;20221;-71
2021/03/22 08:56:34;;;;;;;4.43;3.00;;;;;;;3.80;71.07;93281.63;4974268;28;20283;-72
2021/03/22 08:59:01;;;;;;;4.43;3.42;;;;;;;3.85;70.92;93283.25;4974735;28;20209;-70
2021/03/22 09:01:36;;;;;;;5.88;4.20;;;;;;;3.93;70.53;93277.06;4974111;28;20181;-71
2021/03/22 09:04:32;;;;;;;6.07;3.78;;;;;;;3.81;70.97;93279.75;4991456;28;20276;-71
2021/03/22 09:07:11;;;;;;;5.68;3.80;;;;;;;3.89;70.61;93279.59;4990758;28;20201;-71
2021/03/22 09:09:43;;;;;;;4.65;3.40;;;;;;;3.89;70.54;93269.03;4991546;28;20705;-71
2021/03/22 09:12:32;;;;;;;7.97;4.38;;;;;;;3.95;70.17;93270.31;4975254;28;20194;-71
2021/03/22 09:14:57;;;;;;;4.47;3.60;;;;;;;3.93;69.53;93277.81;4993721;28;20244;-72
2021/03/22 09:17:31;;;;;;;4.87;4.30;;;;;;;3.83;70.11;93277.56;4993725;28;20185;-71
2021/03/22 09:20:21;;;;;;;6.00;4.03;;;;;;;3.76;70.14;93280.00;4993613;28;20177;-69
2021/03/22 09:22:49;;;;;;;7.90;4.65;;;;;;;3.98;69.81;93284.69;4993678;28;20181;-70
2021/03/22 09:25:47;;;;;;;11.43;5.13;;;;;;;4.02;68.86;93284.78;4993973;28;20288;-69
2021/03/22 09:28:39;;;;;;;8.77;4.60;;;;;;;3.95;70.55;93285.41;4994698;28;20182;-72
2021/03/22 09:31:24;;;;;;;7.75;4.38;;;;;;;4.01;70.23;93288.53;4993629;28;20185;-71
2021/03/22 09:34:04;;;;;;;6.55;4.10;;;;;;;3.96;70.56;93285.03;4994710;28;20240;-71
2021/03/22 09:36:39;;;;;;;3.78;3.08;;;;;;;4.11;68.98;93280.09;4994576;28;20174;-73
2021/03/22 09:39:14;;;;;;;3.35;3.05;;;;;;;3.87;70.42;93278.41;4994770;28;20188;-70
2021/03/22 09:42:12;;;;;;;4.60;3.75;;;;;;;4.03;69.78;93279.16;4994526;28;20174;-70
2021/03/22 09:44:57;;;;;;;5.18;3.95;;;;;;;3.98;70.41;93272.28;4989875;28;20720;-71
2021/03/22 09:47:36;;;;;;;8.77;3.55;;;;;;;4.03;69.78;93258.03;4990564;28;20200;-70
2021/03/22 09:50:12;;;;;;;3.72;2.58;;;;;;;3.94;68.92;93265.38;4993173;28;20204;-71
2021/03/22 09:52:41;;;;;;;4.63;3.33;;;;;;;4.12;68.14;93263.16;4993159;28;20217;-72
2021/03/22 09:55:25;;;;;;;4.20;2.95;;;;;;;4.15;70.08;93257.94;4992692;28;20837;-70
2021/03/22 09:57:51;;;;;;;4.55;3.38;;;;;;;3.98;70.47;93250.38;4994190;28;20177;-70
2021/03/22 10:00:34;;;;;;;5.30;3.43;;;;;;;4.18;68.98;93251.97;4993267;28;20243;-70
2021/03/22 10:03:18;;;;;;;5.25;3.58;;;;;;;4.05;70.67;93255.06;4994234;28;20615;-70
2021/03/22 10:05:47;;;;;;;3.25;2.95;;;;;;;4.28;68.07;93252.56;4993164;28;20181;-70
2021/03/22 10:08:15;;;;;;;3.22;2.90;;;;;;;4.37;68.63;93255.75;5009116;28;20212;-69
2021/03/22 10:10:55;;;;;;;4.63;3.58;;;;;;;4.36;69.12;93265.56;4994133;28;20253;-71
2021/03/22 10:13:25;;;;;;;3.30;2.63;;;;;;;4.24;67.69;93260.38;4993651;28;20169;-71
2021/03/22 10:16:00;;;;;;;4.18;3.17;;;;;;;4.44;68.62;93254.03;4992850;28;20236;-70
2021/03/22 10:18:32;;;;;;;4.90;3.90;;;;;;;4.17;68.38;93254.97;4976906;28;20284;-71
2021/03/22 10:21:15;;;;;;;5.60;3.78;;;;;;;4.28;68.77;93253.31;4992806;28;20680;-71
2021/03/22 10:23:50;;;;;;;5.18;3.97;;;;;;;4.32;68.89;93259.44;4992481;28;20181;-71
2021/03/22 10:26:28;;;;;;;5.53;3.95;;;;;;;4.26;68.94;93263.44;4993749;28;20769;-71
2021/03/22 10:29:14;;;;;;;4.78;3.95;;;;;;;4.40;69.42;93271.69;4992592;28;20300;-71
2021/03/22 10:31:40;;;;;;;5.23;3.70;;;;;;;4.41;68.92;93275.88;4993440;28;20261;-71
2021/03/22 10:34:05;;;;;;;5.70;4.50;;;;;;;4.40;68.01;93279.63;4976394;28;20551;-71
2021/03/22 10:36:36;;;;;;;5.67;4.27;;;;;;;4.33;68.54;93282.13;4993567;28;20200;-71
2021/03/22 10:39:06;;;;;;;6.63;4.38;;;;;;;4.22;68.89;93273.94;4993680;28;20174;-71
2021/03/22 10:41:39;;;;;;;8.90;4.38;;;;;;;4.11;68.68;93272.94;4992020;28;20189;-72
2021/03/22 10:44:07;;;;;;;8.03;4.87;;;;;;;4.13;69.13;93277.88;4993536;28;20264;-71
2021/03/22 10:46:33;;;;;;;5.70;4.22;;;;;;;4.21;68.64;93277.72;4992013;28;20802;-72
2021/03/22 10:49:04;;;;;;;6.13;4.23;;;;;;;3.98;69.11;93256.44;4976004;28;20181;-79
2021/03/22 10:51:41;;;;;;;7.35;4.40;;;;;;;4.26;69.05;93276.66;4993301;28;20169;-72
2021/03/22 10:54:10;;;;;;;3.90;3.58;;;;;;;4.39;67.76;93286.03;4993028;28;20232;-71
2021/03/22 10:56:48;;;;;;;6.05;3.50;;;;;;;4.45;67.64;93278.59;4993053;28;20270;-71
2021/03/22 10:59:25;;;;;;;4.78;3.63;;;;;;;4.37;67.96;93282.19;4992193;28;20177;-72
2021/03/22 11:01:52;;;;;;;4.38;3.50;;;;;;;4.39;68.02;93279.97;4976190;28;20181;-72
2021/03/22 11:04:26;;;;;;;4.50;3.35;;;;;;;4.01;68.52;93276.09;4992863;28;20184;-71
2021/03/22 11:06:51;;;;;;;5.15;3.42;;;;;;;4.24;68.83;93278.88;4991510;28;20178;-72
2021/03/22 11:09:22;;;;;;;5.73;3.83;;;;;;;4.19;68.59;93279.16;4991835;28;20232;-71
2021/03/22 11:11:48;;;;;;;6.20;3.27;;;;;;;4.23;68.61;93280.00;4992036;28;20619;-71
2021/03/22 11:14:16;;;;;;;5.17;3.60;;;;;;;4.20;68.62;93291.25;4991726;28;20531;-70
2021/03/22 11:16:42;;;;;;;6.03;3.90;;;;;;;4.07;67.69;93277.38;4991493;28;20182;-72
2021/03/22 11:19:40;;;;;;;5.67;3.23;;;;;;;3.97;68.79;93283.94;4991551;28;20247;-70
2021/03/22 11:22:35;;;;;;;4.00;3.38;;;;;;;3.77;68.86;93282.34;4991308;28;20228;-71
2021/03/22 11:25:00;;;;;;;7.43;3.80;;;;;;;3.96;67.78;93284.28;4991416;28;20170;-71
2021/03/22 11:27:49;;;;;;;5.13;3.87;;;;;;;4.13;67.49;93277.88;4991447;28;20305;-71
2021/03/22 11:30:15;;;;;;;4.68;3.72;;;;;;;3.95;67.07;93278.22;4991245;28;20178;-72
2021/03/22 11:32:45;;;;;;;5.53;3.63;;;;;;;4.11;67.84;93285.38;4992642;28;20166;-71
2021/03/22 11:35:30;;;;;;;5.70;3.67;;;;;;;4.27;67.55;93280.09;4991993;28;20603;-74
2021/03/22 11:37:57;;;;;;;4.88;3.53;;;;;;;4.15;66.60;93281.72;4992040;28;20255;-70
2021/03/22 11:40:26;;;;;;;6.28;3.78;;;;;;;3.99;66.62;93283.63;4992076;28;20177;-71
2021/03/22 11:43:03;;;;;;;4.30;3.00;;;;;;;3.76;67.60;93283.44;4991409;28;20247;-71
2021/03/22 11:45:44;;;;;;;6.70;3.60;;;;;;;3.85;66.82;93280.63;4990990;28;20264;-72
2021/03/22 11:48:19;;;;;;;3.30;3.00;;;;;;;4.08;66.63;93270.97;4975654;28;20185;-72
2021/03/22 11:50:45;;;;;;;4.50;3.20;;;;;;;4.14;67.17;93274.13;4992163;28;20560;-72
2021/03/22 11:53:20;;;;;;;6.50;3.35;;;;;;;4.18;66.83;93277.63;4990745;28;20233;-72
2021/03/22 11:55:48;;;;;;;6.30;4.18;;;;;;;4.16;67.91;93274.56;4992113;28;20336;-72
2021/03/22 11:58:36;;;;;;;4.07;3.03;;;;;;;4.13;69.93;93280.53;4992276;28;20552;-72
2021/03/22 12:01:20;;;;;;;5.07;3.38;;;;;;;4.07;67.97;93284.53;4991956;28;20177;-73
2021/03/22 12:03:46;;;;;;;5.53;2.97;;;;;;;4.15;68.24;93287.00;4991906;28;20170;-72
2021/03/22 12:06:22;;;;;;;3.75;2.80;;;;;;;4.03;69.38;93288.97;4974794;28;20186;-73
2021/03/22 12:08:49;;;;;;;4.05;3.13;;;;;;;4.01;66.99;93288.53;4992074;28;20606;-70
2021/03/22 12:11:22;;;;;;;4.50;3.30;;;;;;;3.98;67.44;93301.34;4992185;28;20185;-73